Time;durP1;ratioP1;P1;durP2;ratioP2;P2;SDS_P1;SDS_P2;PMS_P1;PMS_P2;Temp;Humidity;BMP_temperature;BMP_pressure;BME280_temperature;BME280_humidity;BME280_pressure;Samples;Min_cycle;Max_cycle;Signal;HPM_P1;HPM_P2
2023/09/13 00:00:45;;;;;;;15.98;5.55;;;;;;;22.03;47.27;99512.28;7685111;32;39417;-81
2023/09/13 00:05:02;;;;;;;15.23;5.45;;;;;;;22.06;47.56;99508.81;7685700;32;40869;-82
2023/09/13 00:09:19;;;;;;;17.00;6.05;;;;;;;21.84;48.48;99509.38;7685625;32;37854;-82
2023/09/13 00:13:35;;;;;;;13.80;5.50;;;;;;;21.78;48.87;99508.81;7685606;32;37921;-82
2023/09/13 00:17:51;;;;;;;15.43;6.00;;;;;;;21.80;49.13;99511.25;7685590;32;40091;-82
2023/09/13 00:22:07;;;;;;;15.13;6.03;;;;;;;21.76;49.21;99505.59;7685435;32;39870;-82
2023/09/13 00:26:24;;;;;;;20.58;5.80;;;;;;;21.75;49.38;99499.25;7685420;32;38787;-82
2023/09/13 00:30:40;;;;;;;11.02;5.72;;;;;;;21.59;50.09;99503.94;7685391;32;37964;-81
2023/09/13 00:34:57;;;;;;;12.15;5.40;;;;;;;21.48;51.71;99516.69;7684970;32;40166;-82
2023/09/13 00:39:13;;;;;;;13.15;5.87;;;;;;;21.60;51.31;99501.97;7684221;32;39729;-82
2023/09/13 00:43:30;;;;;;;12.02;5.37;;;;;;;21.48;51.83;99500.84;7685104;32;38636;-82
2023/09/13 00:47:46;;;;;;;14.90;5.60;;;;;;;21.24;52.36;99506.47;7685322;32;38003;-82
2023/09/13 00:52:03;;;;;;;15.23;5.35;;;;;;;21.25;51.46;99497.78;7685174;32;39308;-82
2023/09/13 00:56:19;;;;;;;15.25;5.50;;;;;;;21.17;50.79;99498.72;7684661;32;39708;-82
2023/09/13 01:00:36;;;;;;;12.80;4.93;;;;;;;21.15;49.94;99499.06;7684676;32;38655;-80
2023/09/13 01:04:53;;;;;;;15.73;5.60;;;;;;;20.99;49.91;99503.75;7683433;32;37472;-82
2023/09/13 01:09:09;;;;;;;13.20;5.15;;;;;;;20.94;49.75;99507.56;7684660;32;39115;-81
2023/09/13 01:13:25;;;;;;;13.82;5.05;;;;;;;21.14;49.72;99514.09;7684565;32;40534;-80
2023/09/13 01:17:42;;;;;;;16.15;5.53;;;;;;;21.12;49.33;99510.84;7684686;32;38673;-81
2023/09/13 01:22:05;;;;;;;15.20;5.65;;;;;;;20.96;49.69;99505.22;7684740;32;37991;-82
2023/09/13 01:26:30;;;;;;;14.40;5.53;;;;;;;20.88;49.83;99505.37;7684845;32;39116;-81
2023/09/13 01:30:46;;;;;;;15.75;5.68;;;;;;;21.04;50.47;99511.81;7683625;32;40016;-82
2023/09/13 01:35:02;;;;;;;15.05;5.72;;;;;;;21.07;50.52;99515.84;7684536;32;37839;-81
2023/09/13 01:39:19;;;;;;;14.93;5.62;;;;;;;21.01;50.54;99518.84;7684279;32;37606;-82
2023/09/13 01:43:36;;;;;;;14.70;5.03;;;;;;;20.77;50.98;99521.66;7684519;32;39231;-81
2023/09/13 01:47:53;;;;;;;21.27;6.10;;;;;;;20.81;50.52;99528.91;7684430;32;39995;-82
2023/09/13 01:52:09;;;;;;;18.08;5.45;;;;;;;20.85;50.27;99529.00;7682746;32;37742;-81
2023/09/13 01:56:25;;;;;;;12.25;5.70;;;;;;;20.70;50.71;99533.31;7684348;32;37835;-81
2023/09/13 02:00:42;;;;;;;15.02;5.85;;;;;;;20.69;50.62;99536.41;7684029;32;40126;-80
2023/09/13 02:04:58;;;;;;;19.27;5.82;;;;;;;20.58;51.06;99530.50;7684106;32;40022;-81
2023/09/13 02:09:16;;;;;;;16.00;5.45;;;;;;;20.74;50.34;99523.13;7683986;32;37924;-80
2023/09/13 02:13:33;;;;;;;14.20;5.53;;;;;;;20.60;50.65;99523.47;7683726;32;37256;-81
2023/09/13 02:17:49;;;;;;;14.60;5.72;;;;;;;20.65;50.28;99514.16;7683989;32;39318;-81
2023/09/13 02:22:06;;;;;;;20.70;5.15;;;;;;;20.71;49.87;99515.53;7683733;32;40915;-82
2023/09/13 02:26:25;;;;;;;17.23;5.57;;;;;;;20.44;50.50;99519.78;7683479;32;37931;-81
2023/09/13 02:30:41;;;;;;;14.55;5.95;;;;;;;20.45;50.83;99521.37;7683584;32;37268;-81
2023/09/13 02:34:58;;;;;;;13.50;6.12;;;;;;;20.29;51.34;99521.25;7683280;32;40101;-80
2023/09/13 02:39:32;;;;;;;17.30;6.20;;;;;;;20.30;51.96;99524.81;7683191;32;40017;-80
2023/09/13 02:43:48;;;;;;;16.95;5.45;;;;;;;20.29;52.07;99534.28;7683322;32;37345;-80
2023/09/13 02:48:05;;;;;;;13.00;5.87;;;;;;;20.30;51.92;99525.62;7683038;32;37882;-82
2023/09/13 02:52:28;;;;;;;18.60;5.75;;;;;;;20.33;51.92;99524.12;7683000;32;39846;-80
2023/09/13 02:56:45;;;;;;;14.77;5.75;;;;;;;20.20;52.69;99526.88;7683009;32;40812;-82
2023/09/13 03:01:04;;;;;;;11.73;5.47;;;;;;;20.08;52.70;99524.09;7683153;32;37661;-82
2023/09/13 03:05:21;;;;;;;16.33;5.68;;;;;;;20.27;52.42;99516.03;7686480;32;37096;-82
2023/09/13 03:09:38;;;;;;;15.32;5.30;;;;;;;19.94;52.77;99520.81;7686216;32;40175;-80
2023/09/13 03:13:54;;;;;;;15.88;5.07;;;;;;;20.00;51.72;99517.47;7686300;32;40831;-82
2023/09/13 03:18:12;;;;;;;12.63;5.45;;;;;;;20.25;50.75;99512.03;7685863;32;38012;-81
2023/09/13 03:22:28;;;;;;;15.13;5.12;;;;;;;20.07;52.23;99516.91;7686145;32;37091;-80
2023/09/13 03:26:45;;;;;;;15.68;5.68;;;;;;;20.13;52.05;99515.56;7686133;32;39230;-80
2023/09/13 03:31:01;;;;;;;14.80;6.07;;;;;;;19.98;53.65;99518.97;7686252;32;40022;-79
2023/09/13 03:35:17;;;;;;;15.25;5.68;;;;;;;19.79;54.41;99517.53;7686007;32;38482;-79
2023/09/13 03:39:34;;;;;;;12.80;5.37;;;;;;;19.58;55.14;99511.22;7685864;32;37200;-79
2023/09/13 03:43:51;;;;;;;12.30;5.65;;;;;;;19.54;55.23;99513.03;7685852;32;40016;-80
2023/09/13 03:48:07;;;;;;;15.32;5.80;;;;;;;19.70;55.37;99514.81;7686031;32;39816;-81
2023/09/13 03:52:23;;;;;;;20.70;6.65;;;;;;;19.56;55.07;99519.00;7685557;32;37570;-80
2023/09/13 03:56:40;;;;;;;13.90;5.72;;;;;;;19.56;55.27;99519.00;7685801;32;37348;-81
2023/09/13 04:00:56;;;;;;;17.00;5.80;;;;;;;19.45;55.70;99516.66;7685817;32;40233;-81
2023/09/13 04:05:13;;;;;;;16.17;6.28;;;;;;;19.61;54.78;99519.63;7685720;32;40865;-81
2023/09/13 04:09:29;;;;;;;12.25;5.80;;;;;;;19.88;55.01;99523.78;7685591;32;37882;-72
2023/09/13 04:13:46;;;;;;;10.05;5.12;;;;;;;20.35;54.09;99519.88;7685390;32;37920;-71
2023/09/13 04:18:03;;;;;;;11.23;5.18;;;;;;;20.61;52.41;99519.53;7685385;32;40142;-71
2023/09/13 04:22:20;;;;;;;11.55;5.45;;;;;;;20.85;51.74;99531.00;7685444;32;40900;-71
2023/09/13 04:26:36;;;;;;;13.30;5.40;;;;;;;20.82;51.46;99535.28;7684947;32;37940;-70
2023/09/13 04:30:52;;;;;;;11.95;5.65;;;;;;;20.90;51.67;99537.09;7685472;32;38029;-69
2023/09/13 04:35:09;;;;;;;14.02;4.70;;;;;;;21.16;50.53;99533.97;7685209;32;40125;-72
2023/09/13 04:39:27;;;;;;;15.75;5.87;;;;;;;21.05;50.44;99537.56;7684015;32;39735;-80
2023/09/13 04:43:43;;;;;;;11.60;5.45;;;;;;;20.66;51.21;99537.91;7685240;32;36926;-81
2023/09/13 04:48:00;;;;;;;19.85;6.47;;;;;;;20.57;51.67;99545.50;7685272;32;37408;-81
2023/09/13 04:52:16;;;;;;;19.25;5.55;;;;;;;20.35;52.84;99555.03;7685178;32;39295;-74
2023/09/13 04:56:32;;;;;;;14.25;5.43;;;;;;;20.27;54.52;99559.53;7684848;32;40848;-82
2023/09/13 05:00:49;;;;;;;18.55;6.15;;;;;;;20.30;54.24;99564.38;7684765;32;38809;-80
2023/09/13 05:05:06;;;;;;;11.85;5.28;;;;;;;19.87;55.83;99566.44;7684826;32;35475;-79
2023/09/13 05:09:22;;;;;;;11.55;5.62;;;;;;;20.10;54.61;99566.06;7685038;32;40153;-80
2023/09/13 05:13:39;;;;;;;12.50;5.37;;;;;;;20.11;54.51;99567.69;7684870;32;40746;-80
2023/09/13 05:17:55;;;;;;;20.35;6.45;;;;;;;20.08;54.24;99569.16;7684743;32;37548;-78
2023/09/13 05:22:12;;;;;;;15.75;5.75;;;;;;;20.11;53.75;99567.69;7684775;32;37363;-78
2023/09/13 05:26:28;;;;;;;16.42;5.70;;;;;;;19.87;54.30;99569.19;7684078;32;39392;-79
2023/09/13 05:30:49;;;;;;;12.50;5.40;;;;;;;19.99;54.06;99562.09;7684657;32;39919;-79
2023/09/13 05:35:05;;;;;;;14.43;5.62;;;;;;;20.00;54.01;99569.25;7682428;32;37821;-79
2023/09/13 05:39:22;;;;;;;18.05;6.40;;;;;;;19.89;54.45;99566.91;7684644;32;38017;-78
2023/09/13 05:43:39;;;;;;;17.65;6.03;;;;;;;20.17;53.77;99568.28;7684331;32;39284;-79
2023/09/13 05:47:59;;;;;;;26.33;6.50;;;;;;;19.95;54.92;99566.69;7684224;32;40847;-78
2023/09/13 05:52:16;;;;;;;24.98;6.62;;;;;;;20.34;54.25;99561.75;7684460;32;38045;-79
2023/09/13 05:56:32;;;;;;;21.15;6.35;;;;;;;20.38;54.44;99548.81;7684335;32;37935;-80
2023/09/13 06:00:50;;;;;;;24.83;5.95;;;;;;;20.09;55.62;99558.87;7683968;32;39248;-79
2023/09/13 06:05:09;;;;;;;16.55;5.90;;;;;;;20.48;54.55;99558.66;7681801;32;40826;-80
2023/09/13 06:09:25;;;;;;;17.70;5.90;;;;;;;20.73;54.47;99552.00;7683364;32;37681;-80
2023/09/13 06:13:41;;;;;;;16.15;5.57;;;;;;;20.95;53.47;99549.91;7683460;32;36772;-80
2023/09/13 06:17:58;;;;;;;14.52;5.37;;;;;;;20.58;53.64;99561.78;7683293;32;39414;-80
2023/09/13 06:22:17;;;;;;;14.70;5.55;;;;;;;20.95;53.32;99559.03;7683549;32;40801;-80
2023/09/13 06:26:34;;;;;;;17.87;5.57;;;;;;;21.28;52.51;99551.72;7683737;32;36923;-80
2023/09/13 06:30:50;;;;;;;19.70;5.72;;;;;;;21.52;49.83;99546.13;7682684;32;37211;-81
2023/09/13 06:35:19;;;;;;;12.50;5.55;;;;;;;21.82;50.79;99550.53;7683186;32;39392;-81
2023/09/13 06:39:36;;;;;;;22.30;5.37;;;;;;;21.90;49.85;99550.41;7686702;32;40842;-80
2023/09/13 06:43:52;;;;;;;16.02;5.65;;;;;;;22.01;48.88;99547.09;7686444;32;37871;-80
2023/09/13 06:48:24;;;;;;;16.12;5.25;;;;;;;22.30;50.29;99552.28;7686714;32;37356;-81
2023/09/13 06:52:41;;;;;;;11.80;5.62;;;;;;;22.54;50.25;99549.69;7686691;32;39735;-80
2023/09/13 06:57:17;;;;;;;22.85;5.62;;;;;;;22.85;49.60;99552.47;7685833;32;39945;-78
2023/09/13 07:01:38;;;;;;;17.87;5.65;;;;;;;22.43;49.83;99557.78;7686303;32;37927;-80
2023/09/13 07:06:14;;;;;;;12.48;4.82;;;;;;;22.83;49.14;99557.56;7686043;32;38437;-80
2023/09/13 07:10:31;;;;;;;13.23;4.97;;;;;;;23.10;47.86;99562.59;7686316;32;39252;-80
2023/09/13 07:14:47;;;;;;;17.20;5.37;;;;;;;23.20;46.98;99560.06;7686279;32;40042;-80
2023/09/13 07:19:04;;;;;;;12.57;5.22;;;;;;;23.62;45.96;99559.37;7686172;32;38653;-80
2023/09/13 07:23:20;;;;;;;13.18;5.20;;;;;;;23.88;46.75;99571.06;7686145;32;37369;-81
2023/09/13 07:27:36;;;;;;;14.05;5.00;;;;;;;23.85;46.07;99566.22;7686075;32;40050;-81
2023/09/13 07:31:52;;;;;;;12.57;3.97;;;;;;;23.77;46.77;99557.69;7686071;32;40164;-81
2023/09/13 07:36:09;;;;;;;20.20;5.12;;;;;;;24.11;45.73;99546.03;7685993;32;38048;-80
2023/09/13 07:40:25;;;;;;;18.17;5.35;;;;;;;24.23;44.44;99551.44;7684808;32;36910;-81
2023/09/13 07:44:42;;;;;;;9.70;4.53;;;;;;;24.21;44.88;99561.34;7685743;32;39306;-81
2023/09/13 07:48:58;;;;;;;11.80;5.12;;;;;;;24.62;43.47;99561.69;7685379;32;40852;-80
2023/09/13 07:53:14;;;;;;;13.30;5.10;;;;;;;24.72;43.23;99564.66;7685853;32;38919;-81
2023/09/13 07:57:30;;;;;;;11.00;4.55;;;;;;;24.66;43.39;99571.72;7685690;32;37165;-81
2023/09/13 08:01:48;;;;;;;17.27;4.90;;;;;;;24.76;41.68;99572.28;7684903;32;39440;-81
2023/09/13 08:06:04;;;;;;;13.95;4.68;;;;;;;25.35;41.55;99562.44;7685218;32;40849;-80
2023/09/13 08:10:22;;;;;;;9.32;4.15;;;;;;;25.65;39.83;99556.06;7683661;32;38014;-80
2023/09/13 08:14:38;;;;;;;15.32;4.85;;;;;;;26.07;39.77;99559.78;7666816;32;38783;-81
2023/09/13 08:18:55;;;;;;;18.52;5.12;;;;;;;26.09;39.64;99560.19;7684097;32;40102;-81
2023/09/13 08:23:11;;;;;;;17.40;4.80;;;;;;;26.03;39.84;99560.53;7685431;32;39995;-80
2023/09/13 08:27:28;;;;;;;13.55;5.12;;;;;;;26.22;38.86;99569.91;7685316;32;38770;-81
2023/09/13 08:31:44;;;;;;;9.27;4.37;;;;;;;26.12;39.14;99568.59;7685448;32;37184;-80
2023/09/13 08:36:01;;;;;;;19.10;5.10;;;;;;;26.56;38.12;99559.47;7684976;32;39341;-78
2023/09/13 08:40:18;;;;;;;21.37;4.70;;;;;;;26.68;37.44;99568.75;7684031;32;39671;-79
2023/09/13 08:44:36;;;;;;;13.90;4.43;;;;;;;26.65;37.50;99569.53;7685210;32;38734;-80
2023/09/13 08:48:54;;;;;;;12.65;4.30;;;;;;;27.20;37.02;99565.94;7684242;32;36969;-79
2023/09/13 08:53:12;;;;;;;9.80;4.25;;;;;;;27.70;35.66;99558.66;7683842;32;38248;-80
2023/09/13 08:57:30;;;;;;;13.48;3.95;;;;;;;28.07;35.45;99568.78;7684822;32;40079;-79
2023/09/13 09:01:51;;;;;;;15.13;4.37;;;;;;;28.26;35.52;99564.03;7684252;32;38686;-79
2023/09/13 09:06:08;;;;;;;16.47;4.93;;;;;;;28.90;33.82;99552.06;7685050;32;37906;-80
2023/09/13 09:10:25;;;;;;;10.55;4.37;;;;;;;29.05;32.90;99554.88;7684304;32;40065;-80
2023/09/13 09:14:43;;;;;;;14.13;4.55;;;;;;;29.40;32.11;99556.81;7683898;32;40276;-78
2023/09/13 09:19:01;;;;;;;11.10;4.45;;;;;;;29.94;32.15;99554.62;7684694;32;38895;-79
2023/09/13 09:23:17;;;;;;;12.77;4.47;;;;;;;30.36;31.67;99551.19;7683612;32;36871;-80
2023/09/13 09:27:34;;;;;;;13.45;4.82;;;;;;;30.65;30.46;99554.56;7684178;32;40174;-78
2023/09/13 09:31:53;;;;;;;15.18;4.35;;;;;;;31.25;29.04;99549.59;7684649;32;40850;-77
2023/09/13 09:36:13;;;;;;;9.05;4.12;;;;;;;31.38;28.84;99556.31;7684664;32;37778;-79
2023/09/13 09:40:38;;;;;;;9.10;4.35;;;;;;;31.77;28.64;99551.44;7684773;32;38478;-79
2023/09/13 09:44:55;;;;;;;11.43;4.60;;;;;;;32.18;27.71;99548.50;7683607;32;40100;-80
2023/09/13 09:49:12;;;;;;;10.15;4.25;;;;;;;31.97;28.18;99543.13;7684678;32;39742;-80
2023/09/13 09:53:30;;;;;;;11.85;4.50;;;;;;;32.03;28.23;99537.81;7683341;32;38787;-80
2023/09/13 09:57:47;;;;;;;12.50;4.22;;;;;;;32.22;26.85;99534.34;7678423;32;36060;-79
2023/09/13 10:02:04;;;;;;;11.85;4.20;;;;;;;32.28;25.98;99538.25;7682272;32;39341;-79
2023/09/13 10:06:20;;;;;;;7.18;3.90;;;;;;;32.86;24.45;99532.50;7683359;32;40067;-80
2023/09/13 10:10:38;;;;;;;7.07;3.67;;;;;;;33.16;23.80;99518.69;7681778;32;38671;-80
2023/09/13 10:14:54;;;;;;;10.85;3.55;;;;;;;33.09;23.02;99520.37;7683016;32;37918;-79
2023/09/13 10:19:13;;;;;;;8.15;4.28;;;;;;;33.43;22.62;99513.69;7683046;32;39944;-79
2023/09/13 10:23:39;;;;;;;10.15;3.80;;;;;;;33.13;22.54;99507.00;7682401;32;39952;-79
2023/09/13 10:27:59;;;;;;;7.00;3.87;;;;;;;32.64;22.02;99509.50;7683884;32;38797;-80
2023/09/13 10:32:16;;;;;;;8.00;3.60;;;;;;;32.93;21.51;99500.53;7683290;32;36866;-79
2023/09/13 10:36:37;;;;;;;8.48;3.60;;;;;;;33.43;21.64;99504.44;7682406;32;40120;-79
2023/09/13 10:41:05;;;;;;;6.85;3.83;;;;;;;33.55;22.14;99492.47;7683502;32;40559;-79
2023/09/13 10:45:22;;;;;;;5.95;3.42;;;;;;;33.60;22.06;99505.25;7655926;32;37649;-79
2023/09/13 10:49:40;;;;;;;6.87;4.28;;;;;;;33.33;21.85;99502.62;7674041;32;37109;-79
2023/09/13 10:54:02;;;;;;;6.17;3.83;;;;;;;34.10;20.38;99500.53;7682721;32;39071;-79
2023/09/13 10:58:20;;;;;;;8.02;4.50;;;;;;;34.19;20.79;99495.91;7681827;32;39039;-79
2023/09/13 11:02:38;;;;;;;8.90;4.03;;;;;;;34.11;21.23;99494.44;7681685;32;38007;-80
2023/09/13 11:06:57;;;;;;;7.95;4.35;;;;;;;34.57;21.05;99483.25;7682195;32;38038;-79
2023/09/13 11:11:18;;;;;;;7.62;3.95;;;;;;;34.53;21.12;99485.38;7681722;32;38416;-79
2023/09/13 11:15:46;;;;;;;8.10;4.05;;;;;;;34.38;19.54;99501.94;7682804;32;40796;-79
2023/09/13 11:20:38;;;;;;;6.70;3.83;;;;;;;34.09;20.04;99496.94;7681536;32;38116;-80
2023/09/13 11:24:54;;;;;;;8.15;3.87;;;;;;;33.45;20.27;99499.13;7685720;32;37160;-79
2023/09/13 11:29:44;;;;;;;6.90;4.20;;;;;;;33.52;20.59;99498.97;7685989;32;40185;-78
2023/09/13 11:34:00;;;;;;;7.90;3.95;;;;;;;33.81;20.82;99495.56;7684431;32;39975;-79
2023/09/13 11:38:17;;;;;;;10.93;4.72;;;;;;;34.04;21.03;99489.75;7684217;32;38868;-80
2023/09/13 11:42:33;;;;;;;7.68;4.20;;;;;;;34.82;20.86;99482.63;7685859;32;36792;-79
2023/09/13 11:46:54;;;;;;;11.07;4.53;;;;;;;34.25;20.12;99493.34;7685953;32;40190;-79
2023/09/13 11:51:16;;;;;;;7.90;4.50;;;;;;;34.40;20.99;99483.25;7684776;32;39831;-79
2023/09/13 11:55:43;;;;;;;8.43;4.70;;;;;;;34.13;21.10;99485.53;7685853;32;38098;-80
2023/09/13 12:00:19;;;;;;;8.50;4.90;;;;;;;34.49;20.73;99490.34;7685489;32;38456;-80
2023/09/13 12:04:39;;;;;;;15.02;4.60;;;;;;;34.58;20.73;99476.34;7685712;32;39332;-80
2023/09/13 12:08:58;;;;;;;9.48;4.55;;;;;;;34.03;20.21;99482.53;7685755;32;40230;-80
2023/09/13 12:13:19;;;;;;;12.88;4.40;;;;;;;34.83;19.93;99474.94;7685694;32;38708;-80
2023/09/13 12:17:51;;;;;;;8.93;4.82;;;;;;;35.22;19.75;99459.72;7685776;32;36873;-80
2023/09/13 12:22:17;;;;;;;9.07;4.70;;;;;;;35.04;19.39;99473.56;7685546;32;39373;-80
2023/09/13 12:26:33;;;;;;;10.20;4.28;;;;;;;35.49;19.26;99467.78;7685562;32;40045;-80
2023/09/13 12:30:49;;;;;;;7.37;4.25;;;;;;;35.71;18.98;99464.31;7684082;32;38650;-80
2023/09/13 12:35:06;;;;;;;6.15;3.78;;;;;;;36.31;17.55;99454.34;7685192;32;37278;-80
2023/09/13 12:39:22;;;;;;;10.93;4.00;;;;;;;36.45;17.65;99448.19;7684186;32;40040;-81
2023/09/13 12:43:42;;;;;;;7.90;4.40;;;;;;;35.89;17.58;99441.09;7685251;32;40038;-80
2023/09/13 12:48:00;;;;;;;9.00;4.12;;;;;;;35.29;18.38;99441.69;7685248;32;38695;-80
2023/09/13 12:52:17;;;;;;;8.40;3.90;;;;;;;35.83;18.07;99420.25;7685267;32;38578;-80
2023/09/13 12:56:34;;;;;;;8.80;4.20;;;;;;;36.03;17.37;99428.47;7685125;32;39506;-80
2023/09/13 13:00:55;;;;;;;7.43;4.30;;;;;;;35.65;18.47;99424.41;7684976;32;40782;-80
2023/09/13 13:05:13;;;;;;;9.15;4.20;;;;;;;35.62;18.54;99427.34;7684728;32;37689;-81
2023/09/13 13:09:30;;;;;;;7.68;4.10;;;;;;;36.16;17.95;99419.97;7685102;32;36188;-80
2023/09/13 13:13:46;;;;;;;7.68;4.10;;;;;;;36.90;17.03;99407.28;7683762;32;40263;-81
2023/09/13 13:18:11;;;;;;;6.93;3.67;;;;;;;36.68;16.85;99414.97;7685080;32;40522;-81
2023/09/13 13:22:30;;;;;;;9.45;3.95;;;;;;;36.87;16.26;99416.72;7683681;32;37929;-81
2023/09/13 13:26:46;;;;;;;7.43;4.22;;;;;;;37.09;16.47;99419.56;7683759;32;36989;-81
2023/09/13 13:31:02;;;;;;;10.10;4.30;;;;;;;37.13;16.28;99422.25;7684840;32;40245;-81
2023/09/13 13:35:19;;;;;;;8.95;3.92;;;;;;;37.31;16.89;99399.69;7684846;32;39968;-81
2023/09/13 13:39:35;;;;;;;6.80;4.12;;;;;;;37.21;16.56;99400.88;7684650;32;37965;-81
2023/09/13 13:43:54;;;;;;;9.18;4.78;;;;;;;37.47;16.16;99400.72;7684420;32;36858;-81
2023/09/13 13:48:11;;;;;;;8.00;3.95;;;;;;;37.46;16.14;99393.44;7684289;32;39316;-81
2023/09/13 13:52:27;;;;;;;7.43;3.62;;;;;;;37.49;15.65;99392.50;7684629;32;39778;-81
2023/09/13 13:56:44;;;;;;;12.35;4.40;;;;;;;37.29;16.17;99385.16;7684316;32;38583;-81
2023/09/13 14:01:03;;;;;;;13.45;4.72;;;;;;;37.26;16.27;99391.75;7684215;32;37160;-80
2023/09/13 14:05:20;;;;;;;8.30;4.25;;;;;;;37.09;16.18;99381.84;7684294;32;40085;-81
2023/09/13 14:09:36;;;;;;;18.27;4.55;;;;;;;36.97;16.48;99384.28;7684210;32;39870;-81
2023/09/13 14:13:52;;;;;;;8.70;4.22;;;;;;;37.03;17.35;99381.63;7684025;32;37968;-81
2023/09/13 14:18:09;;;;;;;9.80;4.05;;;;;;;37.28;16.20;99383.56;7682726;32;37006;-81
2023/09/13 14:22:25;;;;;;;7.00;4.22;;;;;;;37.01;16.66;99379.28;7683234;32;39389;-81
2023/09/13 14:26:41;;;;;;;8.93;4.10;;;;;;;37.02;15.94;99372.31;7683808;32;40632;-81
2023/09/13 14:30:58;;;;;;;12.02;3.97;;;;;;;37.16;15.73;99368.16;7683905;32;38429;-81
2023/09/13 14:35:15;;;;;;;14.95;4.50;;;;;;;36.61;16.07;99362.84;7683707;32;37192;-81
2023/09/13 14:39:31;;;;;;;9.05;4.57;;;;;;;36.59;16.73;99368.22;7683517;32;40379;-81
2023/09/13 14:43:48;;;;;;;10.02;4.85;;;;;;;34.73;19.24;99370.03;7683340;32;40734;-82
2023/09/13 14:48:04;;;;;;;7.90;4.97;;;;;;;34.37;20.10;99381.50;7683319;32;38044;-81
2023/09/13 14:52:22;;;;;;;9.38;5.53;;;;;;;33.71;21.65;99369.41;7683268;32;37822;-81
2023/09/13 14:56:38;;;;;;;6.97;4.47;;;;;;;33.59;21.74;99368.06;7683560;32;40318;-81
2023/09/13 15:00:55;;;;;;;10.65;4.47;;;;;;;34.12;20.58;99365.97;7686360;32;39907;-82
2023/09/13 15:05:11;;;;;;;5.87;4.00;;;;;;;34.22;20.09;99364.91;7686475;32;37712;-80
2023/09/13 15:09:28;;;;;;;6.40;4.10;;;;;;;34.28;19.73;99376.47;7686485;32;37936;-81
2023/09/13 15:13:45;;;;;;;10.98;4.70;;;;;;;33.62;20.55;99367.97;7686550;32;40166;-80
2023/09/13 15:18:02;;;;;;;10.32;4.53;;;;;;;33.82;20.17;99367.13;7686217;32;39920;-81
2023/09/13 15:22:18;;;;;;;13.32;4.43;;;;;;;33.52;20.04;99363.34;7686029;32;37984;-81
2023/09/13 15:26:35;;;;;;;10.55;4.00;;;;;;;32.98;20.77;99372.19;7684855;32;38116;-81
2023/09/13 15:30:51;;;;;;;9.00;4.37;;;;;;;33.31;20.45;99359.78;7686071;32;40246;-81
2023/09/13 15:35:08;;;;;;;9.77;4.10;;;;;;;33.29;21.20;99362.25;7686050;32;40866;-81
2023/09/13 15:39:25;;;;;;;8.77;4.45;;;;;;;33.31;20.54;99359.78;7685859;32;37879;-81
2023/09/13 15:43:41;;;;;;;7.62;4.18;;;;;;;33.30;21.20;99361.00;7685940;32;37894;-80
2023/09/13 15:47:57;;;;;;;8.23;4.22;;;;;;;33.22;21.16;99362.44;7685975;32;39488;-81
2023/09/13 15:52:13;;;;;;;13.32;4.85;;;;;;;33.16;21.14;99371.84;7685926;32;39903;-81
2023/09/13 15:56:30;;;;;;;9.38;3.90;;;;;;;33.08;21.16;99362.69;7685704;32;37811;-81
2023/09/13 16:00:46;;;;;;;10.20;4.28;;;;;;;33.02;21.20;99368.06;7685615;32;37216;-81
2023/09/13 16:05:05;;;;;;;10.57;4.60;;;;;;;32.84;21.72;99376.91;7685549;32;39468;-81
2023/09/13 16:09:21;;;;;;;8.55;4.53;;;;;;;32.71;22.42;99373.12;7685530;32;39059;-81
2023/09/13 16:13:37;;;;;;;8.68;4.43;;;;;;;32.72;22.70;99369.09;7685514;32;37820;-80
2023/09/13 16:17:54;;;;;;;10.45;4.43;;;;;;;32.59;23.37;99374.53;7685705;32;37082;-81
2023/09/13 16:22:10;;;;;;;14.85;4.95;;;;;;;32.36;23.56;99372.56;7685407;32;39427;-81
2023/09/13 16:26:26;;;;;;;10.93;4.53;;;;;;;32.01;24.53;99369.09;7685211;32;40787;-81
2023/09/13 16:30:43;;;;;;;7.57;4.65;;;;;;;31.88;25.90;99370.94;7685200;32;38642;-81
2023/09/13 16:35:00;;;;;;;11.77;4.93;;;;;;;31.76;26.32;99367.50;7685356;32;37014;-81
2023/09/13 16:39:19;;;;;;;10.40;5.03;;;;;;;31.58;26.61;99364.12;7685417;32;39421;-81
2023/09/13 16:43:35;;;;;;;9.43;4.82;;;;;;;31.40;26.59;99358.75;7685276;32;39798;-81
2023/09/13 16:47:52;;;;;;;14.30;5.00;;;;;;;31.18;26.83;99355.44;7685139;32;38470;-81
2023/09/13 16:52:08;;;;;;;11.05;4.85;;;;;;;31.00;26.79;99356.47;7685283;32;37584;-82
2023/09/13 16:56:25;;;;;;;14.95;6.72;;;;;;;30.79;27.90;99363.13;7685190;32;40053;-80
2023/09/13 17:00:42;;;;;;;21.65;6.45;;;;;;;30.47;29.15;99377.56;7684923;32;40542;-80
2023/09/13 17:04:59;;;;;;;13.05;6.20;;;;;;;30.30;29.78;99376.47;7684910;32;38691;-80
2023/09/13 17:09:15;;;;;;;11.15;4.85;;;;;;;29.90;30.72;99385.25;7685000;32;38121;-81
2023/09/13 17:13:32;;;;;;;15.60;5.50;;;;;;;29.85;30.75;99384.91;7685029;32;39098;-81
2023/09/13 17:17:48;;;;;;;12.57;5.53;;;;;;;29.56;31.80;99388.69;7684956;32;40828;-81
2023/09/13 17:22:04;;;;;;;9.30;5.40;;;;;;;29.31;32.56;99390.84;7683918;32;37983;-81
2023/09/13 17:26:21;;;;;;;9.18;5.45;;;;;;;29.05;33.39;99390.13;7684816;32;37107;-81
2023/09/13 17:30:37;;;;;;;15.70;5.72;;;;;;;29.06;33.40;99386.09;7684687;32;39326;-81
2023/09/13 17:34:54;;;;;;;11.85;6.12;;;;;;;28.95;33.49;99385.34;7684766;32;40625;-81
2023/09/13 17:39:11;;;;;;;13.05;5.68;;;;;;;28.87;33.22;99392.97;7684745;32;37977;-81
2023/09/13 17:43:27;;;;;;;12.95;5.85;;;;;;;28.74;32.38;99395.44;7684633;32;37788;-80
2023/09/13 17:47:45;;;;;;;11.68;7.43;;;;;;;28.78;32.52;99409.44;7684695;32;39420;-81
2023/09/13 17:52:03;;;;;;;22.67;11.98;;;;;;;28.67;33.00;99408.69;7684529;32;39649;-81
2023/09/13 17:56:19;;;;;;;13.40;7.85;;;;;;;28.72;32.89;99406.25;7684379;32;37886;-81
2023/09/13 18:00:35;;;;;;;14.18;8.02;;;;;;;28.84;32.78;99403.03;7684138;32;37717;-81
2023/09/13 18:04:55;;;;;;;11.10;6.30;;;;;;;28.77;33.16;99414.25;7684270;32;39103;-81
2023/09/13 18:09:11;;;;;;;11.15;6.22;;;;;;;28.76;33.43;99412.66;7684367;32;39809;-81
2023/09/13 18:13:28;;;;;;;11.30;6.15;;;;;;;28.64;33.87;99424.31;7683988;32;38675;-81
2023/09/13 18:17:44;;;;;;;17.17;5.80;;;;;;;28.64;34.13;99422.28;7684077;32;38185;-81
2023/09/13 18:22:10;;;;;;;15.05;6.15;;;;;;;28.50;33.99;99432.72;7684097;32;40080;-81
2023/09/13 18:26:27;;;;;;;11.80;6.78;;;;;;;28.55;33.96;99435.16;7683767;32;40797;-81
2023/09/13 18:30:43;;;;;;;13.60;7.30;;;;;;;28.42;34.66;99431.91;7682789;32;38089;-80
2023/09/13 18:34:59;;;;;;;13.95;7.93;;;;;;;28.33;34.78;99429.50;7682852;32;36980;-80
2023/09/13 18:39:15;;;;;;;11.65;7.35;;;;;;;28.24;35.08;99424.31;7683601;32;39032;-80
2023/09/13 18:43:32;;;;;;;11.27;6.20;;;;;;;28.05;35.36;99431.13;7683476;32;40011;-80
2023/09/13 18:47:48;;;;;;;12.50;5.57;;;;;;;28.07;35.54;99433.53;7683322;32;38761;-81
2023/09/13 18:52:05;;;;;;;11.75;5.85;;;;;;;28.07;35.44;99434.31;7683406;32;37892;-81
2023/09/13 18:56:21;;;;;;;11.20;5.97;;;;;;;28.00;35.77;99433.53;7683203;32;40005;-80
2023/09/13 19:00:38;;;;;;;12.18;6.00;;;;;;;27.91;35.99;99431.91;7682294;32;40749;-82
2023/09/13 19:04:56;;;;;;;14.90;6.62;;;;;;;27.81;36.47;99432.66;7682609;32;37995;-81
2023/09/13 19:09:12;;;;;;;17.40;7.18;;;;;;;27.76;36.88;99440.66;7682695;32;37941;-82
2023/09/13 19:13:32;;;;;;;11.52;6.57;;;;;;;27.63;37.38;99438.22;7682333;32;39250;-80
2023/09/13 19:17:48;;;;;;;12.98;7.40;;;;;;;27.59;37.64;99431.81;7681629;32;40891;-80
2023/09/13 19:22:04;;;;;;;11.80;6.50;;;;;;;27.55;37.99;99436.59;7682105;32;38001;-81
2023/09/13 19:26:21;;;;;;;10.63;6.10;;;;;;;27.54;38.09;99435.00;7681169;32;37052;-81
2023/09/13 19:30:39;;;;;;;11.25;5.87;;;;;;;27.40;38.30;99434.97;7682208;32;39426;-81
2023/09/13 19:34:55;;;;;;;11.40;6.10;;;;;;;27.14;38.75;99432.03;7682254;32;39833;-81
2023/09/13 19:39:11;;;;;;;11.12;6.20;;;;;;;27.06;38.88;99437.97;7682157;32;38435;-81
2023/09/13 19:43:29;;;;;;;10.90;6.12;;;;;;;26.91;39.31;99442.72;7682930;32;37350;-83
2023/09/13 19:47:46;;;;;;;11.65;6.55;;;;;;;26.97;38.95;99441.12;7685892;32;39364;-83
2023/09/13 19:52:03;;;;;;;13.15;6.75;;;;;;;26.83;39.51;99439.06;7685889;32;40846;-81
2023/09/13 19:56:19;;;;;;;9.30;6.40;;;;;;;26.76;39.75;99441.81;7685228;32;37939;-81
2023/09/13 20:00:35;;;;;;;10.02;6.12;;;;;;;26.68;40.09;99446.56;7675972;32;318613;-81